Time;durP1;ratioP1;P1;durP2;ratioP2;P2;SDS_P1;SDS_P2;PMS_P1;PMS_P2;Temp;Humidity;BMP_temperature;BMP_pressure;BME280_temperature;BME280_humidity;BME280_pressure;Samples;Min_cycle;Max_cycle;Signal;HPM_P1;HPM_P2
2023/09/24 00:02:07;;;;;;;2.20;0.70;;;16.20;99.90;;;;;;5035821;28;20511;-78
2023/09/24 00:04:33;;;;;;;3.70;1.50;;;16.30;99.90;;;;;;5032738;28;20026;-78
2023/09/24 00:06:59;;;;;;;3.08;1.45;;;16.30;99.90;;;;;;5035864;28;20052;-78
2023/09/24 00:09:25;;;;;;;2.05;1.30;;;16.30;99.90;;;;;;5051862;28;20098;-78
2023/09/24 00:11:50;;;;;;;3.10;1.33;;;16.40;99.90;;;;;;5052820;28;20033;-78
2023/09/24 00:14:16;;;;;;;2.78;1.30;;;16.40;99.90;;;;;;5036551;28;20390;-77
2023/09/24 00:16:41;;;;;;;4.43;1.65;;;16.50;99.90;;;;;;5049523;28;20053;-77
2023/09/24 00:19:07;;;;;;;1.77;0.80;;;16.50;99.80;;;;;;5038435;28;20529;-78
2023/09/24 00:21:33;;;;;;;2.58;1.13;;;16.50;99.70;;;;;;5038048;28;20433;-77
2023/09/24 00:23:58;;;;;;;4.85;1.85;;;16.60;99.70;;;;;;5047283;28;20429;-77
2023/09/24 00:26:27;;;;;;;2.55;1.10;;;16.60;99.60;;;;;;5053421;28;20146;-78
2023/09/24 00:28:52;;;;;;;4.13;1.70;;;16.60;99.60;;;;;;5041124;28;20096;-78
2023/09/24 00:31:18;;;;;;;7.55;1.85;;;16.60;99.50;;;;;;5018873;28;20112;-79
2023/09/24 00:33:44;;;;;;;2.88;0.90;;;16.70;99.40;;;;;;5045620;28;20068;-78
2023/09/24 00:36:09;;;;;;;2.10;1.15;;;16.60;99.30;;;;;;5053272;28;20032;-78
2023/09/24 00:38:37;;;;;;;6.70;3.25;;;16.60;99.20;;;;;;5044114;28;20051;-78
2023/09/24 00:41:03;;;;;;;3.42;1.65;;;16.70;99.00;;;;;;5036156;28;20029;-78
2023/09/24 00:43:33;;;;;;;3.83;1.77;;;16.60;98.50;;;;;;5040688;28;20087;-78
2023/09/24 00:46:03;;;;;;;3.65;2.33;;;16.60;98.60;;;;;;5053178;28;20051;-79
2023/09/24 00:48:29;;;;;;;2.50;1.10;;;16.60;98.60;;;;;;5061051;28;20045;-79
2023/09/24 00:51:02;;;;;;;4.45;2.03;;;16.50;98.40;;;;;;5038922;28;20107;-78
2023/09/24 00:53:30;;;;;;;4.50;1.10;;;16.50;98.40;;;;;;5034956;28;20030;-79
2023/09/24 00:55:56;;;;;;;2.35;0.80;;;16.40;98.30;;;;;;5035510;28;20112;-79
2023/09/24 00:58:26;;;;;;;4.78;1.63;;;16.40;98.60;;;;;;5047473;28;20095;-79
2023/09/24 01:00:57;;;;;;;3.03;1.42;;;16.50;98.70;;;;;;5038688;28;20428;-78
2023/09/24 01:03:23;;;;;;;2.67;1.13;;;16.50;98.80;;;;;;5047361;28;20025;-78
2023/09/24 01:05:50;;;;;;;3.08;1.40;;;16.50;98.80;;;;;;5052685;28;20112;-79
2023/09/24 01:08:20;;;;;;;3.97;2.00;;;16.50;98.40;;;;;;5035030;28;20523;-80
2023/09/24 01:10:49;;;;;;;4.82;1.48;;;16.50;98.40;;;;;;5039134;28;20119;-79
2023/09/24 01:13:19;;;;;;;2.53;1.25;;;16.40;98.30;;;;;;5036342;28;20079;-79
2023/09/24 01:15:49;;;;;;;2.22;1.13;;;16.40;98.40;;;;;;5034449;28;20040;-78
2023/09/24 01:18:15;;;;;;;3.05;0.95;;;16.50;98.60;;;;;;5049979;28;20078;-80
2023/09/24 01:20:42;;;;;;;5.72;1.42;;;16.50;98.70;;;;;;5050990;28;20037;-79
2023/09/24 01:23:16;;;;;;;3.00;1.20;;;16.50;98.70;;;;;;5037504;28;20033;-80
2023/09/24 01:25:44;;;;;;;3.45;1.52;;;16.50;98.70;;;;;;5034384;28;20115;-80
2023/09/24 01:28:10;;;;;;;2.25;1.13;;;16.50;98.70;;;;;;5041229;28;20045;-80
2023/09/24 01:30:36;;;;;;;2.65;0.73;;;16.50;98.70;;;;;;5044437;28;20033;-80
2023/09/24 01:33:02;;;;;;;1.77;0.90;;;16.60;98.80;;;;;;5048270;28;20107;-80
2023/09/24 01:35:29;;;;;;;5.55;1.75;;;16.60;98.80;;;;;;5050756;28;20190;-81
2023/09/24 01:38:04;;;;;;;2.35;0.80;;;16.60;98.70;;;;;;5041859;28;20470;-80
2023/09/24 01:40:30;;;;;;;2.15;0.80;;;16.60;98.70;;;;;;5049035;28;20033;-80
2023/09/24 01:43:00;;;;;;;4.88;1.40;;;16.60;98.60;;;;;;5044257;28;20037;-77
2023/09/24 01:45:28;;;;;;;2.00;1.10;;;16.70;98.60;;;;;;5038911;28;20021;-80
2023/09/24 01:47:57;;;;;;;2.20;1.13;;;16.70;98.50;;;;;;5041794;28;20033;-79
2023/09/24 01:50:27;;;;;;;4.72;1.55;;;16.70;98.50;;;;;;5052459;28;20037;-79
2023/09/24 01:52:53;;;;;;;3.03;1.27;;;16.60;98.40;;;;;;5043398;28;20033;-79
2023/09/24 01:55:19;;;;;;;3.60;1.30;;;16.70;98.50;;;;;;5034317;28;20033;-80
2023/09/24 01:57:45;;;;;;;3.50;2.05;;;16.70;98.50;;;;;;5040271;28;20056;-78
2023/09/24 02:00:13;;;;;;;2.50;1.30;;;16.60;98.10;;;;;;5050102;28;20060;-78
2023/09/24 02:02:39;;;;;;;2.42;1.38;;;16.60;98.00;;;;;;5047024;28;20366;-79
2023/09/24 02:05:10;;;;;;;5.00;1.48;;;16.50;98.10;;;;;;5034115;28;20040;-79
2023/09/24 02:07:40;;;;;;;3.50;1.90;;;16.60;98.10;;;;;;5031809;28;20041;-79
2023/09/24 02:10:06;;;;;;;2.78;1.80;;;16.60;98.20;;;;;;5032970;28;20055;-79
2023/09/24 02:12:36;;;;;;;3.08;1.67;;;16.60;97.80;;;;;;5034093;28;20363;-79
2023/09/24 02:15:10;;;;;;;4.50;1.50;;;16.50;97.70;;;;;;5051203;28;20056;-77
2023/09/24 02:17:39;;;;;;;2.80;1.77;;;16.50;97.70;;;;;;5049995;28;20366;-79
2023/09/24 02:22:56;;;;;;;2.80;1.75;;;16.40;97.40;;;;;;5033393;28;20068;-78
2023/09/24 02:25:26;;;;;;;4.18;1.13;;;16.40;97.70;;;;;;5041603;28;20041;-79
2023/09/24 02:27:52;;;;;;;3.13;0.98;;;16.40;97.90;;;;;;5037226;28;20037;-79
2023/09/24 02:30:20;;;;;;;3.75;1.40;;;16.40;98.00;;;;;;5051824;28;20041;-78
2023/09/24 02:32:46;;;;;;;2.35;0.93;;;16.40;98.00;;;;;;5036604;28;20033;-79
2023/09/24 02:35:13;;;;;;;3.22;1.58;;;16.50;98.10;;;;;;5048701;28;20036;-79
2023/09/24 02:37:40;;;;;;;3.88;1.58;;;16.50;98.20;;;;;;5050245;28;20040;-78
2023/09/24 02:40:10;;;;;;;1.33;0.77;;;16.50;98.20;;;;;;5037278;28;20037;-79
2023/09/24 02:42:35;;;;;;;2.92;1.30;;;16.50;98.20;;;;;;5033669;28;20041;-79
2023/09/24 02:45:01;;;;;;;2.40;1.30;;;16.50;98.00;;;;;;5038352;28;20030;-79
2023/09/24 02:47:27;;;;;;;2.10;1.40;;;16.40;98.00;;;;;;5032177;28;20481;-78
2023/09/24 02:49:53;;;;;;;2.75;1.27;;;16.50;98.10;;;;;;5044629;28;20052;-79
2023/09/24 02:52:19;;;;;;;2.55;1.30;;;16.50;98.10;;;;;;5047540;28;20488;-77
2023/09/24 02:54:45;;;;;;;3.20;1.55;;;16.50;98.40;;;;;;5037184;28;20033;-79
2023/09/24 02:57:11;;;;;;;4.65;1.48;;;16.50;98.10;;;;;;5050849;28;20044;-79
2023/09/24 02:59:36;;;;;;;1.90;1.08;;;16.50;98.00;;;;;;5043561;28;20037;-79
2023/09/24 03:02:02;;;;;;;2.20;1.10;;;16.50;98.30;;;;;;5050151;28;20025;-78
2023/09/24 03:04:28;;;;;;;3.53;1.30;;;16.50;98.10;;;;;;5044971;28;20033;-79
2023/09/24 03:06:54;;;;;;;1.55;1.00;;;16.50;98.10;;;;;;5033136;28;20048;-76
2023/09/24 03:09:20;;;;;;;2.80;0.98;;;16.60;98.10;;;;;;5035737;28;20397;-79
2023/09/24 03:11:45;;;;;;;2.55;1.02;;;16.50;98.10;;;;;;5050983;28;20028;-79
2023/09/24 03:14:11;;;;;;;3.63;1.30;;;16.50;98.00;;;;;;5038153;28;20117;-79
2023/09/24 03:16:36;;;;;;;4.78;1.30;;;16.50;98.00;;;;;;5032942;28;20037;-79
2023/09/24 03:19:02;;;;;;;2.95;1.23;;;16.60;98.00;;;;;;5033393;28;20448;-77
2023/09/24 03:21:28;;;;;;;1.60;0.80;;;16.50;98.00;;;;;;5051262;28;20101;-78
2023/09/24 03:23:53;;;;;;;3.47;1.35;;;16.60;98.00;;;;;;5050190;28;20044;-78
2023/09/24 03:26:19;;;;;;;3.55;1.80;;;16.60;98.00;;;;;;5033933;28;20061;-78
2023/09/24 03:28:46;;;;;;;3.03;1.23;;;16.60;97.90;;;;;;5031659;28;20192;-78
2023/09/24 03:31:15;;;;;;;4.07;1.10;;;16.60;97.90;;;;;;5048455;28;20385;-80
2023/09/24 03:33:41;;;;;;;2.70;1.20;;;16.60;98.00;;;;;;5050066;28;20032;-79
2023/09/24 03:36:10;;;;;;;3.35;1.48;;;16.60;97.90;;;;;;5036440;28;20055;-78
2023/09/24 03:38:39;;;;;;;2.33;0.95;;;16.60;97.80;;;;;;5030975;28;20045;-79
2023/09/24 03:41:04;;;;;;;2.65;1.10;;;16.60;97.80;;;;;;5050828;28;20033;-78
2023/09/24 03:43:30;;;;;;;2.85;1.13;;;16.70;97.80;;;;;;5041465;28;20037;-79
2023/09/24 03:45:56;;;;;;;4.70;1.75;;;16.60;97.80;;;;;;5052104;28;20029;-79
2023/09/24 03:48:22;;;;;;;3.70;1.30;;;16.60;97.70;;;;;;5054841;28;20388;-79
2023/09/24 03:50:48;;;;;;;2.28;1.33;;;16.60;97.70;;;;;;5043357;28;20234;-79
2023/09/24 03:53:17;;;;;;;3.50;1.23;;;16.60;97.80;;;;;;5037731;28;20034;-78
2023/09/24 03:55:48;;;;;;;3.00;1.02;;;16.60;97.70;;;;;;5044852;28;20083;-77
2023/09/24 03:58:14;;;;;;;1.67;0.90;;;16.60;97.70;;;;;;5036583;28;20038;-78
2023/09/24 04:00:41;;;;;;;2.05;1.10;;;16.60;97.70;;;;;;5044678;28;20472;-78
2023/09/24 04:03:08;;;;;;;2.20;1.02;;;16.60;97.70;;;;;;5052442;28;20051;-78
2023/09/24 04:05:34;;;;;;;4.40;1.75;;;16.60;97.70;;;;;;5047417;28;20113;-78
2023/09/24 04:08:01;;;;;;;2.50;1.60;;;16.60;97.70;;;;;;5036279;28;20105;-79
2023/09/24 04:10:28;;;;;;;2.30;0.80;;;16.60;97.70;;;;;;5041536;28;20033;-79
2023/09/24 04:12:54;;;;;;;3.22;1.10;;;16.60;97.70;;;;;;5038144;28;20112;-78
2023/09/24 04:15:28;;;;;;;2.60;1.33;;;16.60;97.70;;;;;;5050322;28;20450;-79
2023/09/24 04:17:58;;;;;;;1.65;1.13;;;16.60;97.70;;;;;;5054006;28;20061;-78
2023/09/24 04:20:26;;;;;;;4.28;0.88;;;16.60;97.60;;;;;;5051396;28;20033;-78
2023/09/24 04:22:52;;;;;;;2.05;1.20;;;16.60;97.60;;;;;;5036224;28;20033;-79
2023/09/24 04:25:21;;;;;;;3.33;1.17;;;16.60;97.50;;;;;;5038100;28;20045;-79
2023/09/24 04:27:47;;;;;;;2.90;1.30;;;16.60;97.50;;;;;;5052917;28;20075;-79
2023/09/24 04:30:16;;;;;;;2.80;1.27;;;16.60;97.50;;;;;;5050764;28;20381;-78
2023/09/24 04:32:53;;;;;;;2.92;1.00;;;16.60;97.40;;;;;;5036044;28;20466;-79
2023/09/24 04:35:19;;;;;;;2.60;1.08;;;16.60;97.50;;;;;;5038122;28;20482;-78
2023/09/24 04:37:46;;;;;;;2.22;1.15;;;16.60;97.50;;;;;;5035822;28;20107;-79
2023/09/24 04:40:14;;;;;;;2.40;1.45;;;16.60;97.50;;;;;;5039071;28;20031;-79
2023/09/24 04:42:43;;;;;;;3.88;1.50;;;16.50;97.50;;;;;;5051640;28;20037;-79
2023/09/24 04:45:12;;;;;;;4.53;1.30;;;16.50;97.40;;;;;;5040651;28;20041;-79
2023/09/24 04:47:39;;;;;;;3.28;1.50;;;16.50;97.40;;;;;;5052103;28;20068;-79
2023/09/24 04:50:06;;;;;;;4.47;1.67;;;16.50;97.40;;;;;;5051951;28;20052;-79
2023/09/24 04:52:33;;;;;;;2.25;1.02;;;16.50;97.40;;;;;;5036691;28;20029;-79
2023/09/24 04:54:59;;;;;;;2.13;1.15;;;16.50;97.40;;;;;;5052238;28;20086;-77
2023/09/24 04:57:25;;;;;;;4.53;1.60;;;16.50;97.40;;;;;;5021739;28;20048;-77
2023/09/24 04:59:53;;;;;;;3.10;1.52;;;16.50;97.40;;;;;;5041701;28;20037;-77
2023/09/24 05:02:21;;;;;;;3.47;1.00;;;16.40;97.30;;;;;;5030332;28;20397;-78
2023/09/24 05:04:47;;;;;;;1.80;1.20;;;16.40;97.30;;;;;;5038846;28;20117;-77
2023/09/24 05:07:13;;;;;;;1.77;1.33;;;16.40;97.30;;;;;;5046209;28;20029;-77
2023/09/24 05:09:39;;;;;;;2.33;1.10;;;16.40;97.30;;;;;;5039758;28;20052;-78
2023/09/24 05:12:04;;;;;;;4.03;1.00;;;16.40;97.30;;;;;;5044085;28;20025;-78
2023/09/24 05:14:30;;;;;;;3.78;1.35;;;16.40;97.40;;;;;;5053153;28;20551;-78
2023/09/24 05:16:56;;;;;;;2.72;1.40;;;16.40;97.40;;;;;;5048243;28;20029;-78
2023/09/24 05:19:21;;;;;;;3.83;1.20;;;16.50;97.40;;;;;;5051742;28;20048;-81
2023/09/24 05:21:47;;;;;;;3.08;1.33;;;16.50;97.40;;;;;;5043964;28;20036;-80
2023/09/24 05:24:13;;;;;;;3.38;1.02;;;16.50;97.40;;;;;;5035168;28;20030;-80
2023/09/24 05:26:39;;;;;;;2.83;1.20;;;16.50;97.30;;;;;;5041181;28;20049;-79
2023/09/24 05:29:05;;;;;;;2.88;1.10;;;16.50;97.30;;;;;;5033633;28;20056;-81
2023/09/24 05:31:31;;;;;;;2.20;0.98;;;16.50;97.20;;;;;;5022189;28;20067;-78
2023/09/24 05:33:56;;;;;;;3.70;1.48;;;16.50;97.30;;;;;;5035002;28;20381;-78
2023/09/24 05:36:23;;;;;;;2.03;1.23;;;16.50;97.20;;;;;;5037875;28;20040;-78
2023/09/24 05:38:48;;;;;;;2.83;1.20;;;16.40;97.20;;;;;;5035752;28;20041;-77
2023/09/24 05:41:16;;;;;;;3.67;1.35;;;16.50;97.20;;;;;;5037113;28;20389;-77
2023/09/24 05:43:44;;;;;;;1.83;0.80;;;16.50;97.20;;;;;;5051382;28;20040;-78
2023/09/24 05:46:11;;;;;;;2.15;1.10;;;16.50;97.20;;;;;;5049511;28;20469;-77
2023/09/24 05:48:37;;;;;;;2.13;1.00;;;16.40;97.20;;;;;;5052484;28;20041;-78
2023/09/24 05:51:04;;;;;;;2.25;0.80;;;16.40;97.20;;;;;;5052230;28;20052;-74
2023/09/24 05:53:30;;;;;;;4.10;1.17;;;16.50;97.10;;;;;;5033493;28;20036;-78
2023/09/24 05:55:56;;;;;;;4.15;1.20;;;16.40;97.10;;;;;;5034260;28;20128;-77
2023/09/24 05:58:22;;;;;;;1.45;1.02;;;16.40;97.10;;;;;;5050351;28;20029;-78
2023/09/24 06:00:50;;;;;;;4.65;1.60;;;16.50;97.10;;;;;;5043292;28;20056;-80
2023/09/24 06:03:15;;;;;;;2.40;1.30;;;16.40;97.10;;;;;;5033771;28;20037;-81
2023/09/24 06:05:41;;;;;;;3.05;0.75;;;16.50;97.10;;;;;;5036175;28;20523;-80
2023/09/24 06:08:08;;;;;;;2.05;1.02;;;16.50;97.10;;;;;;5035996;28;20033;-80
2023/09/24 06:10:36;;;;;;;2.83;1.15;;;16.40;97.10;;;;;;5033269;28;20045;-80
2023/09/24 06:13:02;;;;;;;4.28;1.38;;;16.50;97.10;;;;;;5045086;28;20500;-80
2023/09/24 06:15:28;;;;;;;2.25;1.10;;;16.50;97.00;;;;;;5032855;28;20029;-80
2023/09/24 06:17:53;;;;;;;2.65;1.50;;;16.50;97.00;;;;;;5045433;28;20115;-80
2023/09/24 06:20:19;;;;;;;2.90;1.40;;;16.50;96.90;;;;;;5051403;28;20049;-80
2023/09/24 06:22:52;;;;;;;3.10;1.60;;;16.50;96.70;;;;;;5040501;28;20109;-80
2023/09/24 06:25:17;;;;;;;2.80;1.40;;;16.50;97.00;;;;;;5039338;28;20029;-79
2023/09/24 06:27:43;;;;;;;3.28;0.70;;;16.40;96.80;;;;;;5042331;28;20374;-82
2023/09/24 06:30:10;;;;;;;6.00;1.13;;;16.50;97.20;;;;;;5051490;28;20111;-79
2023/09/24 06:32:36;;;;;;;3.95;1.20;;;16.60;97.40;;;;;;5047831;28;20146;-79
2023/09/24 06:35:03;;;;;;;2.95;1.10;;;16.70;97.50;;;;;;5034453;28;20447;-79
2023/09/24 06:37:29;;;;;;;3.83;1.27;;;16.70;97.40;;;;;;5033669;28;20421;-79
2023/09/24 06:39:55;;;;;;;2.13;0.80;;;16.70;97.30;;;;;;5030819;28;20033;-80
2023/09/24 06:42:21;;;;;;;3.92;1.05;;;16.80;97.30;;;;;;5031443;28;20035;-79
2023/09/24 06:44:47;;;;;;;4.25;1.77;;;16.90;97.30;;;;;;5034747;28;20055;-80
2023/09/24 06:47:13;;;;;;;3.25;1.80;;;16.90;97.00;;;;;;5043896;28;20545;-80
2023/09/24 06:49:38;;;;;;;3.90;0.90;;;17.00;97.00;;;;;;5031155;28;20121;-81
2023/09/24 06:52:04;;;;;;;2.28;0.80;;;17.00;96.80;;;;;;5043075;28;20424;-79
2023/09/24 06:54:32;;;;;;;1.50;0.65;;;17.00;96.80;;;;;;5032505;28;20025;-79
2023/09/24 06:56:58;;;;;;;1.80;0.75;;;17.10;96.90;;;;;;5042006;28;20028;-80
2023/09/24 06:59:24;;;;;;;3.20;1.00;;;17.20;96.90;;;;;;5032674;28;20532;-80
2023/09/24 07:01:50;;;;;;;3.90;1.70;;;17.20;96.80;;;;;;5040818;28;20032;-80
2023/09/24 07:04:16;;;;;;;2.03;0.68;;;17.30;96.60;;;;;;5050842;28;20036;-80
2023/09/24 07:06:42;;;;;;;2.38;0.98;;;17.30;96.30;;;;;;5045048;28;20029;-80
2023/09/24 07:09:08;;;;;;;2.33;0.80;;;17.30;96.20;;;;;;5032365;28;20048;-80
2023/09/24 07:11:36;;;;;;;2.83;0.60;;;17.40;96.10;;;;;;5039773;28;20462;-79
2023/09/24 07:14:04;;;;;;;3.85;1.25;;;17.50;96.00;;;;;;5050043;28;20033;-81
2023/09/24 07:16:30;;;;;;;3.55;0.95;;;17.50;95.80;;;;;;5047965;28;20037;-81
2023/09/24 07:18:59;;;;;;;4.53;1.33;;;17.50;95.80;;;;;;5032133;28;20061;-78
2023/09/24 07:21:28;;;;;;;4.47;1.20;;;17.50;95.70;;;;;;5038646;28;20034;-79
2023/09/24 07:23:54;;;;;;;4.72;1.10;;;17.40;95.40;;;;;;5050117;28;20040;-79
2023/09/24 07:26:20;;;;;;;3.15;0.80;;;17.40;95.60;;;;;;5050422;28;20033;-79
2023/09/24 07:28:46;;;;;;;5.30;2.28;;;17.50;95.70;;;;;;5032490;28;20037;-81
2023/09/24 07:31:21;;;;;;;2.53;1.45;;;17.40;95.20;;;;;;5033324;28;20390;-81
2023/09/24 07:33:51;;;;;;;3.55;1.25;;;17.30;95.40;;;;;;5046663;28;20120;-81
2023/09/24 07:36:17;;;;;;;3.92;1.88;;;17.30;95.50;;;;;;5032262;28;20029;-82
2023/09/24 07:38:43;;;;;;;3.05;1.20;;;17.30;95.50;;;;;;5042572;28;20112;-81
2023/09/24 07:41:09;;;;;;;3.33;1.27;;;17.30;95.70;;;;;;5031815;28;20115;-80
2023/09/24 07:43:40;;;;;;;3.65;1.52;;;17.30;95.60;;;;;;5046993;28;20055;-78
2023/09/24 07:46:06;;;;;;;3.65;0.88;;;17.40;95.40;;;;;;5048052;28;20029;-79
2023/09/24 07:48:32;;;;;;;4.13;1.40;;;17.30;95.60;;;;;;5043541;28;20121;-79
2023/09/24 07:50:58;;;;;;;3.83;1.48;;;17.40;95.70;;;;;;5049074;28;20579;-79
2023/09/24 07:53:24;;;;;;;3.30;1.30;;;17.40;95.40;;;;;;5047356;28;20470;-81
2023/09/24 07:56:08;;;;;;;5.32;2.03;;;17.40;95.50;;;;;;5048930;28;20021;-81
2023/09/24 07:58:35;;;;;;;3.72;1.33;;;17.50;95.20;;;;;;5037757;28;20450;-78
2023/09/24 08:01:09;;;;;;;3.30;1.10;;;17.50;95.20;;;;;;5045987;28;20022;-78
2023/09/24 08:03:36;;;;;;;2.85;1.27;;;17.60;95.10;;;;;;5043966;28;20068;-77
2023/09/24 08:06:03;;;;;;;3.03;1.35;;;17.70;95.00;;;;;;5039586;28;20029;-79
2023/09/24 08:08:34;;;;;;;4.28;1.08;;;17.70;94.70;;;;;;5040683;28;20100;-78
2023/09/24 08:11:00;;;;;;;3.15;1.33;;;17.80;95.10;;;;;;5044012;28;20028;-78
2023/09/24 08:13:25;;;;;;;3.40;1.48;;;17.90;94.60;;;;;;5038090;28;20017;-78
2023/09/24 08:15:51;;;;;;;9.20;1.50;;;17.90;94.40;;;;;;5034942;28;20025;-79
2023/09/24 08:18:17;;;;;;;2.63;0.60;;;17.80;94.40;;;;;;5040967;28;20025;-78
2023/09/24 08:20:44;;;;;;;7.03;1.25;;;17.90;94.50;;;;;;5031904;28;20053;-80
2023/09/24 08:23:10;;;;;;;2.35;1.35;;;18.00;94.50;;;;;;5040046;28;20020;-78
2023/09/24 08:25:38;;;;;;;4.63;1.20;;;18.00;94.40;;;;;;5050279;28;20461;-80
2023/09/24 08:28:04;;;;;;;5.05;1.40;;;18.10;94.20;;;;;;5048887;28;20036;-82
2023/09/24 08:30:31;;;;;;;3.03;1.20;;;18.10;94.00;;;;;;5052966;28;20038;-82
2023/09/24 08:32:58;;;;;;;3.53;1.13;;;18.10;94.10;;;;;;5037820;28;20032;-80
2023/09/24 08:35:24;;;;;;;3.05;1.17;;;18.20;94.10;;;;;;5052949;28;20583;-79
2023/09/24 08:37:50;;;;;;;2.42;1.50;;;18.30;94.00;;;;;;5047638;28;20111;-77
2023/09/24 08:40:16;;;;;;;3.85;1.45;;;18.30;93.90;;;;;;5048535;28;20040;-81
2023/09/24 08:42:47;;;;;;;5.47;1.98;;;18.30;93.80;;;;;;5039380;28;20080;-81
2023/09/24 08:45:20;;;;;;;4.78;1.33;;;18.40;93.60;;;;;;5034064;28;20028;-79
2023/09/24 08:47:47;;;;;;;4.32;1.20;;;18.40;93.50;;;;;;5036333;28;20044;-86
2023/09/24 08:50:14;;;;;;;3.38;1.25;;;18.50;93.60;;;;;;5041819;28;20033;-82
2023/09/24 08:52:43;;;;;;;3.17;0.93;;;18.50;93.30;;;;;;5044552;28;20389;-80
2023/09/24 08:55:10;;;;;;;4.80;1.05;;;18.60;93.40;;;;;;5033231;28;20120;-82
2023/09/24 08:57:39;;;;;;;3.53;1.17;;;18.70;93.30;;;;;;5044392;28;20033;-82
2023/09/24 09:00:09;;;;;;;3.97;0.80;;;18.80;93.00;;;;;;5034000;28;20033;-76
2023/09/24 09:02:35;;;;;;;2.90;0.70;;;18.80;92.80;;;;;;5041794;28;20053;-81
2023/09/24 09:05:04;;;;;;;3.70;0.77;;;18.90;92.80;;;;;;5049149;28;20117;-82
2023/09/24 09:07:30;;;;;;;2.90;1.02;;;19.00;92.00;;;;;;5039374;28;20059;-82
2023/09/24 09:09:59;;;;;;;3.25;0.88;;;19.10;91.70;;;;;;5052456;28;20100;-82
2023/09/24 09:12:28;;;;;;;4.60;1.05;;;19.20;92.00;;;;;;5046051;28;20033;-82
2023/09/24 09:14:55;;;;;;;4.85;1.20;;;19.20;92.80;;;;;;5033292;28;20033;-82
2023/09/24 09:17:21;;;;;;;7.07;1.10;;;19.30;91.20;;;;;;5035665;28;20469;-82
2023/09/24 09:19:56;;;;;;;5.28;1.23;;;19.30;91.20;;;;;;5050456;28;20094;-82
2023/09/24 09:22:28;;;;;;;2.80;0.70;;;19.40;90.90;;;;;;5048965;28;20121;-82
2023/09/24 09:25:07;;;;;;;4.15;1.33;;;19.40;91.20;;;;;;5034650;28;20021;-82
2023/09/24 09:27:40;;;;;;;5.40;1.35;;;19.50;91.60;;;;;;5040245;28;20040;-82
2023/09/24 09:30:15;;;;;;;2.80;0.80;;;19.60;91.10;;;;;;5032332;28;20029;-82
2023/09/24 09:32:42;;;;;;;4.95;1.02;;;19.60;91.40;;;;;;5041161;28;20033;-81
2023/09/24 09:35:09;;;;;;;4.00;0.70;;;19.70;90.90;;;;;;5047927;28;20025;-81
2023/09/24 09:37:35;;;;;;;3.67;0.82;;;19.80;90.70;;;;;;5048228;28;20068;-81
2023/09/24 09:40:00;;;;;;;3.17;0.80;;;19.90;90.80;;;;;;5033790;28;20068;-81
2023/09/24 09:42:34;;;;;;;3.88;1.10;;;20.00;91.20;;;;;;5041516;28;20542;-81
2023/09/24 09:45:07;;;;;;;9.07;1.25;;;20.10;90.70;;;;;;5034119;28;20447;-82
2023/09/24 09:47:38;;;;;;;2.78;0.77;;;20.20;90.50;;;;;;5051442;28;20029;-81
2023/09/24 09:50:05;;;;;;;3.80;1.10;;;20.20;90.50;;;;;;5034080;28;20052;-82
2023/09/24 09:52:54;;;;;;;2.92;0.73;;;20.20;89.90;;;;;;5034645;28;20470;-80
2023/09/24 09:55:21;;;;;;;4.10;0.73;;;20.30;90.10;;;;;;5032539;28;20402;-82
2023/09/24 09:57:47;;;;;;;3.35;0.52;;;20.30;91.00;;;;;;5035498;28;20037;-82
2023/09/24 10:00:16;;;;;;;5.07;0.73;;;20.30;90.30;;;;;;5038030;28;20041;-78
2023/09/24 10:02:43;;;;;;;4.90;1.08;;;20.50;90.30;;;;;;5038256;28;20423;-82
2023/09/24 10:05:12;;;;;;;2.85;0.75;;;20.60;90.30;;;;;;5051666;28;20029;-81
2023/09/24 10:07:38;;;;;;;4.38;0.80;;;20.60;90.40;;;;;;5049991;28;20044;-81
2023/09/24 10:10:29;;;;;;;4.05;0.90;;;20.70;90.50;;;;;;5038759;28;20120;-82
2023/09/24 10:12:54;;;;;;;2.95;0.57;;;20.90;90.30;;;;;;5034229;28;20108;-82
2023/09/24 10:15:27;;;;;;;3.50;0.60;;;21.00;90.70;;;;;;5051087;28;20440;-82
2023/09/24 10:18:11;;;;;;;3.70;0.65;;;21.00;90.20;;;;;;5051162;28;20543;-82
2023/09/24 10:20:59;;;;;;;2.67;0.70;;;21.00;88.60;;;;;;5033472;28;20102;-82
2023/09/24 10:23:31;;;;;;;3.15;0.60;;;21.00;88.60;;;;;;5036405;28;20508;-81
2023/09/24 10:26:36;;;;;;;1.90;0.60;;;21.00;86.90;;;;;;5051504;28;20040;-83
2023/09/24 10:29:02;;;;;;;4.07;0.70;;;21.00;87.30;;;;;;5045053;28;20106;-82
2023/09/24 10:31:28;;;;;;;3.78;0.50;;;21.00;88.20;;;;;;5048493;28;20114;-81
2023/09/24 10:33:57;;;;;;;4.50;0.52;;;21.10;88.20;;;;;;5038906;28;20110;-82
2023/09/24 10:36:31;;;;;;;6.22;1.10;;;21.20;89.30;;;;;;5051104;28;20033;-83
2023/09/24 10:39:08;;;;;;;2.63;0.55;;;21.30;87.10;;;;;;5032206;28;20114;-82
2023/09/24 10:41:35;;;;;;;2.38;0.50;;;21.40;85.00;;;;;;5031866;28;20037;-83
2023/09/24 10:44:35;;;;;;;4.85;0.70;;;21.50;86.40;;;;;;5038148;28;20107;-83
2023/09/24 10:47:23;;;;;;;6.47;0.80;;;21.60;85.40;;;;;;5020857;28;20038;-83
2023/09/24 10:49:49;;;;;;;4.03;0.80;;;21.60;83.70;;;;;;5041517;28;20034;-83
2023/09/24 10:52:14;;;;;;;2.95;0.85;;;21.60;85.00;;;;;;5037268;28;20128;-80
2023/09/24 10:54:41;;;;;;;3.08;0.50;;;21.60;83.90;;;;;;5042713;28;20454;-83
2023/09/24 10:57:07;;;;;;;4.00;0.70;;;21.70;83.40;;;;;;5050580;28;20218;-83
2023/09/24 10:59:34;;;;;;;3.13;0.50;;;21.70;84.40;;;;;;5040410;28;20130;-82
2023/09/24 11:02:18;;;;;;;3.58;0.70;;;21.80;86.50;;;;;;5031239;28;20041;-79
2023/09/24 11:04:44;;;;;;;3.05;0.43;;;21.90;82.50;;;;;;5040980;28;20171;-83
2023/09/24 11:07:11;;;;;;;2.97;0.60;;;22.00;83.40;;;;;;5033030;28;20113;-83
2023/09/24 11:09:37;;;;;;;1.55;0.38;;;22.00;82.90;;;;;;5042267;28;20064;-82
2023/09/24 11:12:11;;;;;;;3.58;0.55;;;22.10;82.70;;;;;;5032743;28;20029;-83
2023/09/24 11:14:37;;;;;;;3.67;0.60;;;22.10;81.50;;;;;;5039903;28;20063;-82
2023/09/24 11:17:03;;;;;;;4.72;0.50;;;22.20;81.80;;;;;;5036435;28;20025;-83
2023/09/24 11:19:45;;;;;;;2.67;0.40;;;22.30;81.80;;;;;;5032178;28;20127;-82
2023/09/24 11:22:26;;;;;;;4.47;0.55;;;22.40;78.70;;;;;;5033462;28;20052;-82
2023/09/24 11:25:12;;;;;;;4.60;0.68;;;22.50;79.70;;;;;;5034943;28;20076;-82
2023/09/24 11:27:49;;;;;;;3.10;0.57;;;22.40;78.20;;;;;;5043092;28;20033;-83
2023/09/24 11:30:16;;;;;;;2.70;0.50;;;22.40;80.50;;;;;;5048076;28;20048;-81
2023/09/24 11:32:43;;;;;;;3.45;0.73;;;22.50;79.00;;;;;;5035690;28;20072;-82
2023/09/24 11:35:20;;;;;;;2.95;0.45;;;22.50;77.90;;;;;;5031075;28;20378;-81
2023/09/24 11:38:01;;;;;;;2.35;0.65;;;22.60;77.80;;;;;;5015344;28;20416;-84
2023/09/24 11:40:28;;;;;;;2.85;0.80;;;22.60;77.50;;;;;;5030417;28;20033;-83
2023/09/24 11:42:56;;;;;;;3.83;0.40;;;22.60;78.70;;;;;;5046029;28;20025;-84
2023/09/24 11:45:49;;;;;;;2.88;0.40;;;22.60;79.80;;;;;;5030576;28;20596;-84
2023/09/24 11:48:18;;;;;;;2.80;0.60;;;22.70;77.80;;;;;;5047059;28;20025;-84
2023/09/24 11:50:52;;;;;;;3.55;0.68;;;22.80;78.30;;;;;;5042418;28;20025;-85
2023/09/24 11:53:20;;;;;;;3.67;0.73;;;22.90;75.70;;;;;;5046024;28;20389;-84
2023/09/24 11:55:47;;;;;;;3.17;0.50;;;22.80;75.50;;;;;;5046924;28;20035;-85
2023/09/24 11:58:13;;;;;;;1.98;0.52;;;22.80;75.30;;;;;;5034449;28;20041;-84
2023/09/24 12:00:40;;;;;;;3.72;0.70;;;22.70;74.40;;;;;;5034777;28;20037;-84
2023/09/24 12:03:06;;;;;;;2.15;0.40;;;22.70;74.30;;;;;;5046908;28;20056;-83
2023/09/24 12:05:35;;;;;;;2.97;0.50;;;22.70;74.80;;;;;;5043355;28;20053;-84
2023/09/24 12:08:05;;;;;;;1.80;0.43;;;22.70;75.10;;;;;;5045923;28;20108;-85
2023/09/24 12:10:38;;;;;;;1.63;0.30;;;22.70;74.40;;;;;;5034176;28;20029;-84
2023/09/24 12:13:04;;;;;;;3.65;0.50;;;22.70;74.80;;;;;;5040619;28;20053;-86
2023/09/24 12:15:31;;;;;;;3.70;0.68;;;22.70;75.50;;;;;;5041628;28;20072;-81
2023/09/24 12:17:59;;;;;;;6.28;0.63;;;22.80;76.10;;;;;;5039879;28;20037;-85
2023/09/24 12:20:28;;;;;;;2.47;0.50;;;22.90;77.00;;;;;;5053634;28;20049;-84
2023/09/24 12:22:54;;;;;;;3.13;0.60;;;23.10;76.10;;;;;;5045189;28;20482;-84
2023/09/24 12:25:20;;;;;;;2.75;0.40;;;23.10;75.10;;;;;;5034119;28;20026;-84
2023/09/24 12:27:46;;;;;;;2.88;0.50;;;23.10;73.40;;;;;;5040217;28;20040;-84
2023/09/24 12:30:12;;;;;;;1.88;0.43;;;23.10;72.80;;;;;;5045662;28;20029;-84
2023/09/24 12:32:39;;;;;;;2.90;0.30;;;23.10;72.40;;;;;;5039757;28;20041;-83
2023/09/24 12:35:07;;;;;;;3.20;0.80;;;23.00;72.30;;;;;;5042154;28;20163;-84
2023/09/24 12:37:33;;;;;;;1.30;0.40;;;23.10;73.70;;;;;;5035376;28;20116;-84
2023/09/24 12:39:59;;;;;;;2.97;0.60;;;23.20;74.30;;;;;;5034230;28;20047;-82
2023/09/24 12:42:31;;;;;;;2.53;0.50;;;23.30;73.20;;;;;;5041729;28;20500;-84
2023/09/24 12:44:58;;;;;;;1.40;0.40;;;23.30;72.20;;;;;;5051247;28;20434;-84
2023/09/24 12:47:24;;;;;;;1.98;0.40;;;23.30;70.60;;;;;;5040569;28;20036;-83
2023/09/24 12:49:54;;;;;;;2.65;0.60;;;23.20;71.40;;;;;;5051091;28;20381;-84
2023/09/24 12:52:21;;;;;;;2.83;0.65;;;23.30;72.00;;;;;;5045673;28;20032;-84
2023/09/24 12:54:46;;;;;;;5.03;0.63;;;23.30;72.50;;;;;;5052402;28;20110;-82
2023/09/24 12:57:12;;;;;;;4.40;0.60;;;23.30;72.70;;;;;;5045513;28;20469;-84